Time;durP1;ratioP1;P1;durP2;ratioP2;P2;SDS_P1;SDS_P2;PMS_P1;PMS_P2;Temp;Humidity;BMP_temperature;BMP_pressure;BME280_temperature;BME280_humidity;BME280_pressure;Samples;Min_cycle;Max_cycle;Signal;HPM_P1;HPM_P2
2021/07/19 00:01:21;;;;;;;9.47;5.23;;;;;;;;;;5011430;28;20453;-51
2021/07/19 00:03:47;;;;;;;5.73;5.13;;;;;;;;;;5011304;28;20400;-51
2021/07/19 00:06:13;;;;;;;6.90;4.80;;;;;;;;;;5011086;28;20928;-51
2021/07/19 00:08:39;;;;;;;7.30;5.60;;;;;;;;;;5011277;28;20400;-50
2021/07/19 00:11:05;;;;;;;5.73;4.80;;;;;;;;;;5011296;28;20474;-50
2021/07/19 00:13:31;;;;;;;7.60;5.90;;;;;;;;;;5011169;28;20406;-50
2021/07/19 00:15:57;;;;;;;5.90;5.40;;;;;;;;;;5011063;28;20728;-49
2021/07/19 00:18:23;;;;;;;8.67;5.50;;;;;;;;;;5011081;28;20410;-50
2021/07/19 00:20:50;;;;;;;5.87;4.90;;;;;;;;;;5011064;28;20448;-50
2021/07/19 00:23:16;;;;;;;6.30;5.70;;;;;;;;;;5011079;28;20474;-51
2021/07/19 00:25:42;;;;;;;8.23;5.90;;;;;;;;;;5010328;28;20408;-51
2021/07/19 00:28:08;;;;;;;9.27;5.13;;;;;;;;;;5011082;28;20407;-51
2021/07/19 00:30:36;;;;;;;7.90;5.07;;;;;;;;;;5010976;28;20407;-50
2021/07/19 00:33:03;;;;;;;9.40;5.23;;;;;;;;;;5010900;28;20448;-50
2021/07/19 00:35:29;;;;;;;5.63;5.10;;;;;;;;;;5010708;28;20473;-50
2021/07/19 00:37:55;;;;;;;9.30;5.27;;;;;;;;;;5010995;28;20845;-51
2021/07/19 00:40:22;;;;;;;9.57;5.43;;;;;;;;;;5010828;28;20528;-51
2021/07/19 00:42:48;;;;;;;6.17;5.57;;;;;;;;;;5010919;28;20398;-51
2021/07/19 00:45:16;;;;;;;6.40;5.80;;;;;;;;;;5010747;28;20410;-51
2021/07/19 00:47:43;;;;;;;8.57;5.50;;;;;;;;;;5010887;28;20930;-50
2021/07/19 00:50:10;;;;;;;5.97;5.37;;;;;;;;;;5010865;28;20426;-50
2021/07/19 00:52:36;;;;;;;7.93;5.00;;;;;;;;;;5010806;28;20379;-49
2021/07/19 00:55:03;;;;;;;11.23;4.83;;;;;;;;;;5010555;28;20408;-50
2021/07/19 00:57:29;;;;;;;5.50;4.57;;;;;;;;;;5010867;28;20382;-50
2021/07/19 00:59:55;;;;;;;17.27;6.20;;;;;;;;;;5010735;28;20916;-50
2021/07/19 01:02:21;;;;;;;5.33;4.83;;;;;;;;;;5010038;28;20842;-50
2021/07/19 01:04:47;;;;;;;7.37;5.17;;;;;;;;;;5009999;28;20389;-52
2021/07/19 01:07:13;;;;;;;6.20;5.60;;;;;;;;;;5010631;28;20397;-53
2021/07/19 01:09:40;;;;;;;7.63;5.33;;;;;;;;;;5010708;28;20437;-53
2021/07/19 01:12:06;;;;;;;13.20;6.07;;;;;;;;;;5010805;28;20491;-53
2021/07/19 01:14:32;;;;;;;13.50;5.87;;;;;;;;;;5010570;28;20420;-52
2021/07/19 01:16:58;;;;;;;7.87;5.23;;;;;;;;;;5010467;28;20436;-53
2021/07/19 01:19:25;;;;;;;8.70;5.97;;;;;;;;;;5010780;28;20409;-52
2021/07/19 01:21:51;;;;;;;6.17;5.57;;;;;;;;;;5010779;28;20459;-50
2021/07/19 01:24:38;;;;;;;9.40;5.60;;;;;;;;;;5010843;28;20555;-49
2021/07/19 01:27:07;;;;;;;6.47;5.63;;;;;;;;;;5010553;28;20483;-50
2021/07/19 01:29:34;;;;;;;7.73;5.90;;;;;;;;;;5010627;28;20400;-50
2021/07/19 01:32:00;;;;;;;7.10;5.07;;;;;;;;;;5010567;28;20732;-49
2021/07/19 01:34:30;;;;;;;6.87;5.23;;;;;;;;;;5010383;28;20421;-52
2021/07/19 01:37:00;;;;;;;6.03;5.40;;;;;;;;;;5010241;28;20399;-50
2021/07/19 01:39:27;;;;;;;8.10;5.20;;;;;;;;;;5013038;28;20415;-49
2021/07/19 01:41:54;;;;;;;8.90;6.50;;;;;;;;;;5013846;28;20428;-50
2021/07/19 01:44:20;;;;;;;9.53;5.50;;;;;;;;;;5013938;28;20404;-49
2021/07/19 01:46:47;;;;;;;9.40;5.80;;;;;;;;;;5013650;28;20885;-49
2021/07/19 01:49:13;;;;;;;7.57;5.93;;;;;;;;;;5013982;28;20401;-52
2021/07/19 01:51:40;;;;;;;8.13;6.23;;;;;;;;;;5013907;28;20411;-51
2021/07/19 01:54:06;;;;;;;21.10;6.60;;;;;;;;;;5013698;28;20474;-49
2021/07/19 01:56:33;;;;;;;6.70;5.43;;;;;;;;;;5013375;28;20435;-49
2021/07/19 01:58:59;;;;;;;6.10;4.83;;;;;;;;;;5013700;28;20376;-50
2021/07/19 02:01:26;;;;;;;7.63;5.37;;;;;;;;;;5013518;28;20437;-49
2021/07/19 02:03:53;;;;;;;16.00;6.17;;;;;;;;;;5013542;28;20430;-49
2021/07/19 02:06:19;;;;;;;9.40;5.53;;;;;;;;;;5013209;28;20909;-51
2021/07/19 02:08:49;;;;;;;7.00;5.77;;;;;;;;;;5013479;28;20455;-50
2021/07/19 02:11:15;;;;;;;11.60;5.30;;;;;;;;;;5013356;28;20814;-51
2021/07/19 02:13:45;;;;;;;13.93;6.03;;;;;;;;;;5013384;28;20496;-49
2021/07/19 02:16:12;;;;;;;8.33;6.00;;;;;;;;;;5013005;28;20938;-50
2021/07/19 02:18:39;;;;;;;7.03;5.20;;;;;;;;;;5013440;28;20408;-49
2021/07/19 02:21:05;;;;;;;9.77;6.23;;;;;;;;;;5013200;28;20426;-52
2021/07/19 02:23:32;;;;;;;12.23;6.23;;;;;;;;;;5013195;28;20424;-52
2021/07/19 02:25:58;;;;;;;9.07;6.40;;;;;;;;;;5012968;28;20418;-50
2021/07/19 02:28:25;;;;;;;6.60;5.40;;;;;;;;;;5013226;28;20400;-49
2021/07/19 02:30:51;;;;;;;13.37;6.40;;;;;;;;;;5013073;28;20855;-49
2021/07/19 02:33:20;;;;;;;11.13;6.33;;;;;;;;;;5012960;28;20451;-52
2021/07/19 02:35:47;;;;;;;6.53;5.90;;;;;;;;;;5012923;28;20456;-49
2021/07/19 02:38:14;;;;;;;10.00;6.27;;;;;;;;;;5013254;28;20379;-49
2021/07/19 02:40:41;;;;;;;8.57;5.93;;;;;;;;;;5013066;28;20430;-54
2021/07/19 02:43:08;;;;;;;6.37;5.37;;;;;;;;;;5012995;28;20397;-49
2021/07/19 02:45:35;;;;;;;10.93;6.43;;;;;;;;;;5012643;28;20382;-50
2021/07/19 02:48:02;;;;;;;9.23;6.27;;;;;;;;;;5012956;28;20772;-49
2021/07/19 02:50:28;;;;;;;6.77;5.77;;;;;;;;;;5012441;28;20428;-49
2021/07/19 02:52:57;;;;;;;12.73;6.50;;;;;;;;;;5012522;28;20404;-51
2021/07/19 02:55:24;;;;;;;10.63;6.53;;;;;;;;;;5012479;28;20385;-50
2021/07/19 02:57:50;;;;;;;10.47;6.30;;;;;;;;;;5012560;28;20952;-51
2021/07/19 03:00:17;;;;;;;8.73;6.87;;;;;;;;;;5012499;28;20491;-52
2021/07/19 03:02:53;;;;;;;8.83;6.43;;;;;;;;;;5012374;28;20462;-50
2021/07/19 03:05:21;;;;;;;9.97;7.67;;;;;;;;;;5012169;28;20950;-49
2021/07/19 03:07:50;;;;;;;7.20;6.40;;;;;;;;;;5012329;28;20404;-51
2021/07/19 03:10:18;;;;;;;13.57;7.00;;;;;;;;;;5012390;28;20978;-51
2021/07/19 03:12:45;;;;;;;8.73;6.40;;;;;;;;;;5012245;28;20398;-49
2021/07/19 03:15:11;;;;;;;7.63;6.43;;;;;;;;;;5012154;28;21027;-50
2021/07/19 03:17:38;;;;;;;9.60;6.90;;;;;;;;;;5012134;28;20453;-50
2021/07/19 03:20:05;;;;;;;7.60;6.80;;;;;;;;;;5012190;28;20377;-49
2021/07/19 03:22:31;;;;;;;15.00;7.80;;;;;;;;;;5011953;28;20517;-50
2021/07/19 03:24:58;;;;;;;11.23;8.27;;;;;;;;;;5011913;28;20522;-50
2021/07/19 03:27:24;;;;;;;9.57;7.33;;;;;;;;;;5011964;28;20377;-49
2021/07/19 03:29:51;;;;;;;13.63;7.80;;;;;;;;;;5012037;28;20435;-49
2021/07/19 03:32:19;;;;;;;10.70;7.10;;;;;;;;;;5011885;28;20374;-49
2021/07/19 03:34:45;;;;;;;10.57;8.23;;;;;;;;;;5011744;28;20398;-49
2021/07/19 03:37:11;;;;;;;10.77;8.10;;;;;;;;;;5011552;28;20411;-50
2021/07/19 03:39:40;;;;;;;9.50;8.30;;;;;;;;;;5011848;28;20382;-50
2021/07/19 03:42:06;;;;;;;12.53;7.50;;;;;;;;;;5011612;28;20433;-50
2021/07/19 03:44:34;;;;;;;15.33;8.77;;;;;;;;;;5011662;28;20784;-49
2021/07/19 03:47:00;;;;;;;15.73;8.90;;;;;;;;;;5011313;28;20829;-49
2021/07/19 03:49:26;;;;;;;12.77;9.03;;;;;;;;;;5011691;28;20395;-50
2021/07/19 03:51:52;;;;;;;12.10;8.60;;;;;;;;;;5011521;28;20894;-49
2021/07/19 03:54:18;;;;;;;10.70;8.73;;;;;;;;;;5011552;28;20436;-49
2021/07/19 03:56:44;;;;;;;14.67;8.67;;;;;;;;;;5011317;28;20389;-50
2021/07/19 03:59:12;;;;;;;12.83;8.60;;;;;;;;;;5011595;28;20439;-49
2021/07/19 04:01:39;;;;;;;12.70;9.57;;;;;;;;;;4992938;28;20440;-49
2021/07/19 04:04:07;;;;;;;12.10;8.50;;;;;;;;;;5011373;28;20436;-51
2021/07/19 04:06:34;;;;;;;14.60;8.73;;;;;;;;;;5011084;28;20395;-52
2021/07/19 04:09:00;;;;;;;11.60;8.93;;;;;;;;;;5011334;28;20393;-50
2021/07/19 04:11:27;;;;;;;10.37;8.30;;;;;;;;;;5011384;28;20955;-50
2021/07/19 04:13:54;;;;;;;14.37;8.50;;;;;;;;;;5011218;28;20478;-49
2021/07/19 04:16:20;;;;;;;10.53;8.17;;;;;;;;;;5010997;28;20466;-50
2021/07/19 04:18:52;;;;;;;13.93;8.83;;;;;;;;;;5011172;28;20445;-50
2021/07/19 04:21:21;;;;;;;11.30;7.93;;;;;;;;;;5011133;28;20461;-51
2021/07/19 04:23:47;;;;;;;13.40;8.97;;;;;;;;;;5011094;28;20398;-50
2021/07/19 04:26:14;;;;;;;9.53;8.47;;;;;;;;;;5010943;28;20428;-49
2021/07/19 04:28:40;;;;;;;11.60;8.20;;;;;;;;;;5011290;28;20400;-50
2021/07/19 04:31:06;;;;;;;12.93;8.70;;;;;;;;;;5011556;28;20861;-53
2021/07/19 04:33:32;;;;;;;12.00;7.53;;;;;;;;;;5011543;28;20426;-51
2021/07/19 04:35:58;;;;;;;11.83;8.60;;;;;;;;;;5010751;28;20409;-51
2021/07/19 04:38:25;;;;;;;11.37;8.23;;;;;;;;;;5010929;28;20923;-51
2021/07/19 04:40:52;;;;;;;11.73;8.20;;;;;;;;;;5010925;28;20912;-51
2021/07/19 04:43:18;;;;;;;11.70;8.20;;;;;;;;;;5010831;28;20513;-50
2021/07/19 04:45:45;;;;;;;9.30;7.40;;;;;;;;;;5010805;28;20395;-50
2021/07/19 04:48:12;;;;;;;18.10;7.50;;;;;;;;;;5010906;28;20404;-51
2021/07/19 04:50:38;;;;;;;16.93;8.47;;;;;;;;;;5010847;28;20787;-50
2021/07/19 04:53:04;;;;;;;12.00;7.40;;;;;;;;;;5010764;28;20434;-51
2021/07/19 04:55:30;;;;;;;10.87;8.40;;;;;;;;;;5010646;28;20784;-50
2021/07/19 04:57:57;;;;;;;12.40;8.17;;;;;;;;;;5011038;28;20433;-50
2021/07/19 05:00:23;;;;;;;12.93;8.03;;;;;;;;;;5010717;28;20409;-50
2021/07/19 05:02:51;;;;;;;11.40;7.80;;;;;;;;;;5010601;28;20518;-50
2021/07/19 05:05:19;;;;;;;11.83;8.70;;;;;;;;;;5010541;28;20401;-49
2021/07/19 05:07:46;;;;;;;11.13;7.47;;;;;;;;;;5010661;28;20870;-50
2021/07/19 05:10:15;;;;;;;16.27;7.53;;;;;;;;;;5010735;28;20371;-49
2021/07/19 05:12:45;;;;;;;12.60;7.73;;;;;;;;;;5012035;28;20428;-50
2021/07/19 05:15:12;;;;;;;8.97;7.73;;;;;;;;;;5014400;28;20389;-50
2021/07/19 05:17:39;;;;;;;11.03;7.70;;;;;;;;;;5014316;28;20379;-50
2021/07/19 05:20:08;;;;;;;13.17;8.50;;;;;;;;;;5014461;28;20879;-50
2021/07/19 05:22:34;;;;;;;10.23;9.20;;;;;;;;;;5014183;28;20518;-50
2021/07/19 05:25:00;;;;;;;11.83;8.07;;;;;;;;;;5014106;28;20414;-50
2021/07/19 05:27:26;;;;;;;10.93;8.87;;;;;;;;;;5014291;28;20401;-50
2021/07/19 05:29:52;;;;;;;14.47;9.20;;;;;;;;;;5014197;28;20387;-50
2021/07/19 05:32:19;;;;;;;14.77;9.97;;;;;;;;;;5014415;28;20447;-50
2021/07/19 05:34:45;;;;;;;10.60;7.63;;;;;;;;;;5013997;28;20512;-50
2021/07/19 05:37:12;;;;;;;14.10;9.17;;;;;;;;;;5013931;28;20397;-50
2021/07/19 05:39:38;;;;;;;12.17;8.00;;;;;;;;;;5013975;28;20402;-50
2021/07/19 05:42:04;;;;;;;14.73;9.33;;;;;;;;;;5013966;28;21064;-51
2021/07/19 05:44:30;;;;;;;12.53;9.07;;;;;;;;;;5013918;28;20429;-50
2021/07/19 05:46:56;;;;;;;11.17;8.33;;;;;;;;;;5013835;28;20400;-51
2021/07/19 05:49:22;;;;;;;11.90;7.60;;;;;;;;;;5013875;28;20397;-51
2021/07/19 05:51:48;;;;;;;11.97;7.60;;;;;;;;;;5013930;28;20417;-50
2021/07/19 05:54:13;;;;;;;17.67;8.33;;;;;;;;;;5013734;28;20405;-50
2021/07/19 05:56:39;;;;;;;10.23;8.23;;;;;;;;;;5013708;28;20464;-49
2021/07/19 05:59:05;;;;;;;11.37;8.10;;;;;;;;;;5013796;28;20485;-50
2021/07/19 06:01:31;;;;;;;11.93;9.23;;;;;;;;;;5013838;28;20785;-50
2021/07/19 06:03:59;;;;;;;11.30;9.03;;;;;;;;;;5013711;28;20427;-50
2021/07/19 06:06:25;;;;;;;12.80;8.20;;;;;;;;;;5012752;28;20900;-50
2021/07/19 06:08:51;;;;;;;12.57;9.30;;;;;;;;;;5012667;28;20411;-50
2021/07/19 06:11:17;;;;;;;13.60;9.20;;;;;;;;;;5012963;28;20391;-50
2021/07/19 06:13:43;;;;;;;19.03;9.53;;;;;;;;;;5012964;28;20446;-50
2021/07/19 06:16:10;;;;;;;15.67;9.60;;;;;;;;;;5013790;28;20446;-50
2021/07/19 06:18:36;;;;;;;11.33;9.13;;;;;;;;;;5013601;28;20382;-49
2021/07/19 06:21:02;;;;;;;18.43;10.10;;;;;;;;;;5013624;28;20454;-50
2021/07/19 06:23:28;;;;;;;15.73;10.67;;;;;;;;;;5012899;28;20403;-49
2021/07/19 06:25:54;;;;;;;13.03;9.43;;;;;;;;;;5012830;28;20404;-50
2021/07/19 06:28:20;;;;;;;15.57;9.07;;;;;;;;;;5013247;28;20407;-50
2021/07/19 06:30:46;;;;;;;16.23;10.37;;;;;;;;;;5013037;28;20444;-50
2021/07/19 06:33:12;;;;;;;14.47;9.70;;;;;;;;;;5012895;28;20448;-51
2021/07/19 06:35:37;;;;;;;16.47;9.40;;;;;;;;;;5012806;28;20404;-50
2021/07/19 06:38:03;;;;;;;13.63;9.63;;;;;;;;;;5013045;28;20977;-50
2021/07/19 06:40:29;;;;;;;14.80;9.73;;;;;;;;;;5012800;28;20379;-50
2021/07/19 06:42:55;;;;;;;15.97;9.70;;;;;;;;;;5012807;28;20420;-51
2021/07/19 06:45:21;;;;;;;10.67;9.27;;;;;;;;;;5012614;28;20413;-51
2021/07/19 06:47:47;;;;;;;12.10;9.30;;;;;;;;;;5012782;28;20439;-49
2021/07/19 06:50:14;;;;;;;10.90;9.00;;;;;;;;;;5012787;28;20419;-51
2021/07/19 06:52:41;;;;;;;14.83;9.87;;;;;;;;;;5011084;28;20505;-50
2021/07/19 06:55:08;;;;;;;12.43;8.97;;;;;;;;;;5012933;28;20486;-52
2021/07/19 06:57:34;;;;;;;14.30;10.10;;;;;;;;;;5013011;28;20428;-51
2021/07/19 07:00:00;;;;;;;14.40;9.13;;;;;;;;;;5012724;28;20466;-50
2021/07/19 07:02:29;;;;;;;13.77;8.90;;;;;;;;;;4995132;28;20471;-50
2021/07/19 07:04:54;;;;;;;13.37;9.50;;;;;;;;;;5011508;28;20399;-50
2021/07/19 07:07:20;;;;;;;9.57;7.83;;;;;;;;;;5011671;28;20399;-51
2021/07/19 07:09:48;;;;;;;12.07;8.60;;;;;;;;;;5012118;28;20408;-51
2021/07/19 07:12:14;;;;;;;13.43;9.20;;;;;;;;;;4992918;28;20400;-51
2021/07/19 07:14:40;;;;;;;10.07;8.20;;;;;;;;;;4996668;28;20490;-51
2021/07/19 07:17:06;;;;;;;11.33;9.00;;;;;;;;;;4992347;28;20425;-52
2021/07/19 07:19:32;;;;;;;15.57;10.57;;;;;;;;;;4991331;28;20407;-51
2021/07/19 07:21:58;;;;;;;20.47;11.10;;;;;;;;;;4992453;28;20456;-52
2021/07/19 07:24:24;;;;;;;13.50;9.90;;;;;;;;;;4992490;28;20919;-51
2021/07/19 07:26:50;;;;;;;15.37;10.80;;;;;;;;;;4992298;28;20401;-49
2021/07/19 07:29:16;;;;;;;11.70;9.10;;;;;;;;;;4992646;28;20405;-52
2021/07/19 07:31:42;;;;;;;15.90;9.97;;;;;;;;;;4992410;28;20417;-49
2021/07/19 07:34:08;;;;;;;13.40;11.27;;;;;;;;;;4992225;28;20452;-49
2021/07/19 07:36:34;;;;;;;14.33;10.10;;;;;;;;;;4992022;28;20475;-50
2021/07/19 07:39:00;;;;;;;19.83;10.23;;;;;;;;;;4992431;28;20413;-49
2021/07/19 07:41:29;;;;;;;13.97;10.10;;;;;;;;;;4992126;28;21027;-52
2021/07/19 07:43:55;;;;;;;14.90;8.80;;;;;;;;;;4992210;28;20516;-50
2021/07/19 07:46:23;;;;;;;15.50;9.27;;;;;;;;;;4991870;28;20430;-49
2021/07/19 07:48:49;;;;;;;13.33;9.80;;;;;;;;;;4992242;28;20419;-49
2021/07/19 07:51:15;;;;;;;17.70;11.70;;;;;;;;;;4992276;28;20466;-49
2021/07/19 07:53:41;;;;;;;15.47;11.00;;;;;;;;;;4992388;28;21265;-49
2021/07/19 07:56:07;;;;;;;16.93;11.40;;;;;;;;;;4991879;28;20411;-50
2021/07/19 07:58:33;;;;;;;12.97;10.70;;;;;;;;;;4992137;28;20421;-49
2021/07/19 08:00:59;;;;;;;14.20;10.07;;;;;;;;;;4991792;28;20454;-50
2021/07/19 08:03:24;;;;;;;19.57;10.40;;;;;;;;;;4992030;28;20415;-49
2021/07/19 08:05:50;;;;;;;14.43;10.47;;;;;;;;;;4991571;28;20487;-49
2021/07/19 08:08:16;;;;;;;12.80;9.93;;;;;;;;;;4991766;28;20404;-49
2021/07/19 08:10:42;;;;;;;12.33;10.00;;;;;;;;;;4991802;28;20546;-50
2021/07/19 08:13:08;;;;;;;15.83;10.17;;;;;;;;;;4991588;28;20440;-49
2021/07/19 08:15:35;;;;;;;15.20;10.17;;;;;;;;;;4991400;28;20400;-50
2021/07/19 08:18:02;;;;;;;11.23;9.20;;;;;;;;;;4991506;28;20445;-49
2021/07/19 08:20:28;;;;;;;11.17;8.83;;;;;;;;;;4991543;28;21076;-50
2021/07/19 08:22:54;;;;;;;11.87;8.23;;;;;;;;;;4991430;28;20520;-50
2021/07/19 08:25:20;;;;;;;19.67;10.67;;;;;;;;;;4991312;28;20487;-50
2021/07/19 08:27:47;;;;;;;15.83;10.53;;;;;;;;;;4991432;28;20935;-49
2021/07/19 08:30:13;;;;;;;13.63;9.90;;;;;;;;;;4991473;28;20400;-50
2021/07/19 08:32:40;;;;;;;14.40;8.83;;;;;;;;;;4991211;28;20508;-50
2021/07/19 08:35:09;;;;;;;11.53;9.20;;;;;;;;;;4991266;28;20449;-50
2021/07/19 08:37:44;;;;;;;11.00;9.07;;;;;;;;;;4991286;28;20433;-50
2021/07/19 08:40:11;;;;;;;11.20;9.70;;;;;;;;;;4991342;28;20774;-52
2021/07/19 08:42:37;;;;;;;13.60;9.07;;;;;;;;;;4991191;28;20490;-49
2021/07/19 08:45:05;;;;;;;13.63;9.97;;;;;;;;;;4991032;28;20455;-50
2021/07/19 08:47:31;;;;;;;15.90;9.77;;;;;;;;;;4993992;28;20765;-50
2021/07/19 08:49:57;;;;;;;11.53;8.80;;;;;;;;;;4997778;28;20401;-52
2021/07/19 08:52:23;;;;;;;10.23;8.47;;;;;;;;;;4997546;28;20414;-52
2021/07/19 08:54:49;;;;;;;14.77;9.73;;;;;;;;;;4997723;28;20413;-49
2021/07/19 08:57:20;;;;;;;11.03;8.20;;;;;;;;;;4997509;28;20423;-49
2021/07/19 08:59:47;;;;;;;11.97;8.50;;;;;;;;;;4997908;28;20417;-49
2021/07/19 09:02:13;;;;;;;15.77;10.27;;;;;;;;;;4997519;28;20458;-50
2021/07/19 09:04:40;;;;;;;14.90;9.60;;;;;;;;;;4997578;28;20420;-50
2021/07/19 09:07:06;;;;;;;13.43;10.77;;;;;;;;;;4997399;28;20411;-49
2021/07/19 09:09:34;;;;;;;16.20;9.57;;;;;;;;;;4997557;28;20435;-52
2021/07/19 09:12:04;;;;;;;13.63;10.33;;;;;;;;;;4997585;28;20420;-49
2021/07/19 09:14:30;;;;;;;12.13;9.30;;;;;;;;;;4997461;28;20515;-50
2021/07/19 09:16:56;;;;;;;11.57;8.47;;;;;;;;;;4997380;28;20493;-49
2021/07/19 09:19:26;;;;;;;15.73;9.87;;;;;;;;;;4997480;28;20395;-52
2021/07/19 09:21:57;;;;;;;12.70;8.47;;;;;;;;;;4997459;28;20882;-50
2021/07/19 09:24:24;;;;;;;10.77;8.87;;;;;;;;;;4997272;28;20428;-51
2021/07/19 09:26:51;;;;;;;12.97;9.10;;;;;;;;;;4997210;28;20405;-50
2021/07/19 09:29:19;;;;;;;12.20;9.10;;;;;;;;;;4997399;28;20429;-51
2021/07/19 09:31:52;;;;;;;11.00;9.13;;;;;;;;;;4997455;28;20418;-51
2021/07/19 09:34:25;;;;;;;19.13;8.97;;;;;;;;;;4997088;28;20450;-49
2021/07/19 09:36:55;;;;;;;12.60;8.90;;;;;;;;;;5000800;28;20414;-51
2021/07/19 09:39:21;;;;;;;12.00;9.07;;;;;;;;;;5014505;28;20807;-52
2021/07/19 09:44:55;;;;;;;22.90;9.93;;;;;;;;;;5019624;28;20232;-60
2021/07/19 09:47:32;;;;;;;11.87;9.57;;;;;;;;;;5022319;28;20492;-59
2021/07/19 09:49:59;;;;;;;14.13;10.30;;;;;;;;;;5030893;28;20933;-60
2021/07/19 09:52:33;;;;;;;15.30;10.10;;;;;;;;;;5036209;28;20432;-59
2021/07/19 09:54:59;;;;;;;14.17;9.70;;;;;;;;;;5030362;28;20492;-59
2021/07/19 09:57:25;;;;;;;13.87;9.20;;;;;;;;;;5032455;28;21054;-59
2021/07/19 09:59:52;;;;;;;11.53;9.83;;;;;;;;;;5010833;28;20959;-58
2021/07/19 10:02:53;;;;;;;11.13;9.13;;;;;;;;;;5012009;28;20489;-59
2021/07/19 10:05:29;;;;;;;12.77;9.30;;;;;;;;;;4981130;28;20414;-58
2021/07/19 10:07:56;;;;;;;15.20;9.60;;;;;;;;;;5012880;28;20843;-58
2021/07/19 10:10:41;;;;;;;12.43;10.40;;;;;;;;;;5013096;28;20397;-58
2021/07/19 10:13:09;;;;;;;15.33;10.00;;;;;;;;;;5012240;28;20433;-58
2021/07/19 10:15:37;;;;;;;9.93;8.93;;;;;;;;;;5012470;28;20827;-58
2021/07/19 10:18:07;;;;;;;14.37;9.43;;;;;;;;;;5011009;28;20432;-58
2021/07/19 10:20:34;;;;;;;10.10;9.10;;;;;;;;;;5010542;28;20420;-58
2021/07/19 10:23:00;;;;;;;18.70;9.80;;;;;;;;;;5010395;28;21085;-58
2021/07/19 10:25:26;;;;;;;13.80;9.10;;;;;;;;;;5011759;28;20399;-58
2021/07/19 10:27:52;;;;;;;15.60;9.50;;;;;;;;;;5012278;28;20397;-57
2021/07/19 10:30:18;;;;;;;17.27;10.07;;;;;;;;;;5012039;28;20490;-58
2021/07/19 10:32:44;;;;;;;13.90;9.00;;;;;;;;;;5010532;28;20466;-58
2021/07/19 10:35:11;;;;;;;13.47;8.90;;;;;;;;;;5012054;28;20474;-58
2021/07/19 10:38:00;;;;;;;16.93;10.20;;;;;;;;;;5015656;28;21138;-58
2021/07/19 10:40:30;;;;;;;13.30;9.70;;;;;;;;;;5012384;28;20429;-58
2021/07/19 10:43:06;;;;;;;12.30;9.60;;;;;;;;;;5014201;28;20451;-58
2021/07/19 10:45:39;;;;;;;15.77;10.97;;;;;;;;;;5012903;28;20426;-59
2021/07/19 10:48:06;;;;;;;14.00;10.73;;;;;;;;;;5017893;28;20426;-58
2021/07/19 10:50:37;;;;;;;13.57;9.60;;;;;;;;;;5022105;28;20417;-58
2021/07/19 10:53:03;;;;;;;16.60;10.07;;;;;;;;;;5020612;28;20435;-58
2021/07/19 10:55:33;;;;;;;14.90;10.20;;;;;;;;;;5019542;28;20444;-58
2021/07/19 10:58:00;;;;;;;13.10;10.97;;;;;;;;;;5020550;28;20414;-57
2021/07/19 11:00:26;;;;;;;23.47;11.10;;;;;;;;;;5021865;28;20407;-57
2021/07/19 11:03:03;;;;;;;16.23;11.70;;;;;;;;;;5018940;28;20944;-57
2021/07/19 11:05:33;;;;;;;17.43;10.93;;;;;;;;;;5016268;28;20940;-56
2021/07/19 11:07:59;;;;;;;17.90;11.03;;;;;;;;;;5010784;28;20408;-58
2021/07/19 11:10:25;;;;;;;25.63;11.27;;;;;;;;;;5010277;28;20421;-58
2021/07/19 11:12:52;;;;;;;15.00;12.00;;;;;;;;;;5011826;28;20475;-57
2021/07/19 11:15:21;;;;;;;17.50;12.17;;;;;;;;;;5012971;28;20411;-57
2021/07/19 11:17:47;;;;;;;15.07;11.63;;;;;;;;;;5028727;28;20410;-56
2021/07/19 11:20:16;;;;;;;20.80;13.00;;;;;;;;;;5032033;28;20414;-57
2021/07/19 11:22:42;;;;;;;21.20;11.47;;;;;;;;;;5031396;28;20870;-57
2021/07/19 11:25:14;;;;;;;15.20;11.37;;;;;;;;;;5031711;28;20409;-57
2021/07/19 11:27:41;;;;;;;17.20;11.77;;;;;;;;;;5032012;28;20398;-58
2021/07/19 11:30:12;;;;;;;14.33;11.53;;;;;;;;;;5031675;28;20402;-57
2021/07/19 11:32:39;;;;;;;16.03;12.03;;;;;;;;;;5031473;28;20484;-57
2021/07/19 11:35:05;;;;;;;18.93;12.43;;;;;;;;;;5031462;28;20961;-56
2021/07/19 11:37:35;;;;;;;17.63;10.70;;;;;;;;;;5031650;28;20410;-56
2021/07/19 11:40:01;;;;;;;20.00;12.20;;;;;;;;;;5030903;28;20414;-57
2021/07/19 11:42:30;;;;;;;13.90;11.03;;;;;;;;;;5030679;28;20460;-58
2021/07/19 11:45:02;;;;;;;21.63;12.30;;;;;;;;;;5031295;28;20940;-57
2021/07/19 11:47:29;;;;;;;21.23;11.80;;;;;;;;;;5030742;28;20390;-57
2021/07/19 11:50:02;;;;;;;15.60;11.13;;;;;;;;;;5030990;28;20402;-57
2021/07/19 11:52:28;;;;;;;15.90;11.40;;;;;;;;;;5031094;28;20801;-56
2021/07/19 11:54:55;;;;;;;16.23;11.07;;;;;;;;;;5025231;28;20883;-57
2021/07/19 11:57:21;;;;;;;18.33;11.90;;;;;;;;;;5011269;28;20416;-57
2021/07/19 11:59:47;;;;;;;18.80;11.23;;;;;;;;;;5011428;28;20428;-56
2021/07/19 12:02:13;;;;;;;12.60;10.50;;;;;;;;;;5010765;28;20456;-56
2021/07/19 12:04:39;;;;;;;14.33;10.57;;;;;;;;;;5011400;28;20441;-57
2021/07/19 12:07:06;;;;;;;13.57;10.60;;;;;;;;;;5011268;28;20510;-57
2021/07/19 12:09:33;;;;;;;13.43;10.90;;;;;;;;;;5011429;28;20399;-57
2021/07/19 12:12:00;;;;;;;15.90;10.80;;;;;;;;;;5010844;28;20434;-57
2021/07/19 12:14:26;;;;;;;15.37;10.67;;;;;;;;;;5011317;28;20399;-57
2021/07/19 12:16:52;;;;;;;13.97;10.37;;;;;;;;;;5011042;28;20410;-57
2021/07/19 12:19:19;;;;;;;16.73;9.53;;;;;;;;;;5011609;28;20705;-56
2021/07/19 12:22:00;;;;;;;15.50;9.40;;;;;;;;;;5010030;28;20454;-56
2021/07/19 12:24:27;;;;;;;13.57;10.00;;;;;;;;;;5011269;28;20406;-56
2021/07/19 12:26:55;;;;;;;12.23;10.77;;;;;;;;;;5011071;28;20410;-56
2021/07/19 12:29:25;;;;;;;14.17;9.70;;;;;;;;;;5011076;28;20409;-57
2021/07/19 12:31:53;;;;;;;11.17;10.00;;;;;;;;;;5011222;28;20403;-56
2021/07/19 12:34:22;;;;;;;12.77;10.27;;;;;;;;;;5011341;28;20411;-59
2021/07/19 12:36:48;;;;;;;11.50;9.53;;;;;;;;;;5011098;28;20779;-56
2021/07/19 12:39:14;;;;;;;11.40;9.23;;;;;;;;;;5010926;28;20407;-56
2021/07/19 12:41:41;;;;;;;11.73;10.03;;;;;;;;;;5010748;28;20454;-56
2021/07/19 12:44:13;;;;;;;16.30;11.90;;;;;;;;;;5010728;28;20868;-58
2021/07/19 12:46:43;;;;;;;15.90;10.70;;;;;;;;;;5010991;28;20417;-56
2021/07/19 12:49:10;;;;;;;11.73;10.07;;;;;;;;;;5010685;28;20509;-57
2021/07/19 12:51:37;;;;;;;12.30;9.70;;;;;;;;;;5010697;28;20407;-58
2021/07/19 12:54:04;;;;;;;11.43;9.77;;;;;;;;;;5010396;28;20403;-57
2021/07/19 12:56:31;;;;;;;19.60;10.97;;;;;;;;;;5010594;28;20399;-57
2021/07/19 12:59:09;;;;;;;12.60;9.67;;;;;;;;;;5010667;28;20461;-57
2021/07/19 13:01:36;;;;;;;12.70;10.20;;;;;;;;;;5010450;28;20482;-57
2021/07/19 13:04:02;;;;;;;17.23;11.10;;;;;;;;;;5010466;28;20768;-57
2021/07/19 13:06:28;;;;;;;11.57;9.67;;;;;;;;;;5010568;28;20884;-57
2021/07/19 13:08:54;;;;;;;12.40;10.17;;;;;;;;;;5010417;28;20457;-57
2021/07/19 13:11:20;;;;;;;13.40;9.93;;;;;;;;;;5010602;28;20409;-57
2021/07/19 13:13:46;;;;;;;10.87;9.27;;;;;;;;;;5010419;28;20511;-57
2021/07/19 13:16:12;;;;;;;10.83;9.57;;;;;;;;;;5010334;28;20897;-57
2021/07/19 13:18:39;;;;;;;12.73;9.70;;;;;;;;;;5010566;28;20498;-57
2021/07/19 13:21:06;;;;;;;11.83;10.30;;;;;;;;;;5010290;28;20466;-57
2021/07/19 13:23:36;;;;;;;14.00;9.93;;;;;;;;;;5009967;28;20506;-57
2021/07/19 13:26:15;;;;;;;12.10;9.60;;;;;;;;;;5010621;28;20464;-57
2021/07/19 13:28:42;;;;;;;15.37;10.27;;;;;;;;;;5010434;28;20491;-57
2021/07/19 13:31:09;;;;;;;11.97;9.47;;;;;;;;;;5010424;28;20407;-57
2021/07/19 13:33:35;;;;;;;15.80;11.23;;;;;;;;;;5011170;28;20427;-57
2021/07/19 13:36:01;;;;;;;14.00;10.20;;;;;;;;;;5014353;28;20491;-56
2021/07/19 13:38:39;;;;;;;12.87;10.20;;;;;;;;;;5014064;28;20414;-56
2021/07/19 13:41:05;;;;;;;13.73;10.83;;;;;;;;;;5013957;28;20448;-56
2021/07/19 13:43:36;;;;;;;18.13;11.23;;;;;;;;;;5013682;28;20419;-56
2021/07/19 13:46:02;;;;;;;13.23;10.50;;;;;;;;;;5013910;28;21107;-57
2021/07/19 13:48:28;;;;;;;14.60;10.30;;;;;;;;;;5013315;28;20464;-57
2021/07/19 13:50:55;;;;;;;14.47;10.70;;;;;;;;;;5012158;28;20425;-58
2021/07/19 13:53:21;;;;;;;10.67;9.57;;;;;;;;;;5012806;28;20926;-56
2021/07/19 13:56:03;;;;;;;14.80;10.10;;;;;;;;;;5013661;28;20420;-57
2021/07/19 13:58:30;;;;;;;14.43;10.47;;;;;;;;;;5013790;28;20421;-57
2021/07/19 14:00:57;;;;;;;13.53;10.83;;;;;;;;;;5013294;28;20450;-56
2021/07/19 14:03:23;;;;;;;15.37;10.30;;;;;;;;;;5013395;28;20510;-56
2021/07/19 14:05:49;;;;;;;14.13;11.07;;;;;;;;;;5013486;28;20544;-57
2021/07/19 14:08:16;;;;;;;11.60;9.53;;;;;;;;;;5013631;28;20460;-57
2021/07/19 14:10:42;;;;;;;12.00;10.60;;;;;;;;;;5013489;28;20410;-56
2021/07/19 14:13:08;;;;;;;16.73;10.90;;;;;;;;;;5013183;28;20812;-56
2021/07/19 14:15:35;;;;;;;16.47;10.37;;;;;;;;;;5012059;28;20494;-56
2021/07/19 14:18:01;;;;;;;17.93;10.83;;;;;;;;;;5013647;28;20439;-56
2021/07/19 14:20:27;;;;;;;14.47;10.67;;;;;;;;;;5013370;28;20770;-57
2021/07/19 14:22:53;;;;;;;14.07;10.37;;;;;;;;;;5012993;28;20546;-56
2021/07/19 14:25:19;;;;;;;13.77;10.47;;;;;;;;;;5013335;28;20399;-56
2021/07/19 14:27:45;;;;;;;12.53;9.80;;;;;;;;;;5013065;28;20404;-56
2021/07/19 14:30:13;;;;;;;12.20;9.70;;;;;;;;;;5013083;28;20406;-57
2021/07/19 14:32:39;;;;;;;13.90;9.33;;;;;;;;;;5012654;28;20434;-57